sensor_id;sensor_type;location;lat;lon;timestamp;temperature;humidity
4564;DHT22;2294;51.818;8.484;2022-08-01T00:02:12;19.80;99.90
4564;DHT22;2294;51.818;8.484;2022-08-01T00:04:39;19.90;99.90
4564;DHT22;2294;51.818;8.484;2022-08-01T00:07:06;19.80;99.90
4564;DHT22;2294;51.818;8.484;2022-08-01T00:09:33;19.80;99.90
4564;DHT22;2294;51.818;8.484;2022-08-01T00:12:01;19.80;99.90
4564;DHT22;2294;51.818;8.484;2022-08-01T00:14:30;19.80;99.90
4564;DHT22;2294;51.818;8.484;2022-08-01T00:16:57;19.90;99.90
4564;DHT22;2294;51.818;8.484;2022-08-01T00:19:24;19.90;99.90
4564;DHT22;2294;51.818;8.484;2022-08-01T00:21:51;19.80;99.90
4564;DHT22;2294;51.818;8.484;2022-08-01T00:24:18;19.80;99.90
4564;DHT22;2294;51.818;8.484;2022-08-01T00:26:45;19.90;99.90
4564;DHT22;2294;51.818;8.484;2022-08-01T00:29:13;19.70;99.90
4564;DHT22;2294;51.818;8.484;2022-08-01T00:31:40;19.70;99.90
4564;DHT22;2294;51.818;8.484;2022-08-01T00:34:07;19.70;99.90
4564;DHT22;2294;51.818;8.484;2022-08-01T00:36:34;19.70;99.90
4564;DHT22;2294;51.818;8.484;2022-08-01T00:39:01;19.60;99.90
4564;DHT22;2294;51.818;8.484;2022-08-01T00:41:27;19.70;99.90
4564;DHT22;2294;51.818;8.484;2022-08-01T00:43:54;19.70;99.90
4564;DHT22;2294;51.818;8.484;2022-08-01T00:46:23;19.70;99.90
4564;DHT22;2294;51.818;8.484;2022-08-01T00:48:50;19.70;99.90
4564;DHT22;2294;51.818;8.484;2022-08-01T00:51:17;19.70;99.90
4564;DHT22;2294;51.818;8.484;2022-08-01T00:53:44;19.80;99.90
4564;DHT22;2294;51.818;8.484;2022-08-01T00:56:11;19.70;99.90
4564;DHT22;2294;51.818;8.484;2022-08-01T00:58:38;19.70;99.90
4564;DHT22;2294;51.818;8.484;2022-08-01T01:01:05;19.60;99.90
4564;DHT22;2294;51.818;8.484;2022-08-01T01:03:34;19.70;99.90
4564;DHT22;2294;51.818;8.484;2022-08-01T01:06:10;19.60;99.90
4564;DHT22;2294;51.818;8.484;2022-08-01T01:08:45;19.60;99.90
4564;DHT22;2294;51.818;8.484;2022-08-01T01:11:16;19.50;99.90
4564;DHT22;2294;51.818;8.484;2022-08-01T01:13:52;19.50;99.90
4564;DHT22;2294;51.818;8.484;2022-08-01T01:16:21;19.50;99.90
4564;DHT22;2294;51.818;8.484;2022-08-01T01:18:54;19.50;99.90
4564;DHT22;2294;51.818;8.484;2022-08-01T01:21:39;19.60;99.90
4564;DHT22;2294;51.818;8.484;2022-08-01T01:24:25;19.50;99.90
4564;DHT22;2294;51.818;8.484;2022-08-01T01:26:59;19.50;99.90
4564;DHT22;2294;51.818;8.484;2022-08-01T01:29:32;19.50;99.90
4564;DHT22;2294;51.818;8.484;2022-08-01T01:32:05;19.50;99.90
4564;DHT22;2294;51.818;8.484;2022-08-01T01:34:35;19.40;99.90
4564;DHT22;2294;51.818;8.484;2022-08-01T01:37:08;19.40;99.90
4564;DHT22;2294;51.818;8.484;2022-08-01T01:39:36;19.50;99.90
4564;DHT22;2294;51.818;8.484;2022-08-01T01:42:06;19.40;99.90
4564;DHT22;2294;51.818;8.484;2022-08-01T01:44:36;19.40;99.90
4564;DHT22;2294;51.818;8.484;2022-08-01T01:47:04;19.30;99.90
4564;DHT22;2294;51.818;8.484;2022-08-01T01:49:32;19.30;99.90
4564;DHT22;2294;51.818;8.484;2022-08-01T01:52:00;19.20;99.90
4564;DHT22;2294;51.818;8.484;2022-08-01T01:54:31;19.40;99.90
4564;DHT22;2294;51.818;8.484;2022-08-01T01:57:00;19.30;99.90
4564;DHT22;2294;51.818;8.484;2022-08-01T01:59:31;19.20;99.90
4564;DHT22;2294;51.818;8.484;2022-08-01T02:02:03;19.20;99.90
4564;DHT22;2294;51.818;8.484;2022-08-01T02:04:31;19.10;99.90
4564;DHT22;2294;51.818;8.484;2022-08-01T02:07:00;19.30;99.90
4564;DHT22;2294;51.818;8.484;2022-08-01T02:09:29;19.30;99.90
4564;DHT22;2294;51.818;8.484;2022-08-01T02:11:58;19.20;99.90
4564;DHT22;2294;51.818;8.484;2022-08-01T02:14:26;19.20;99.90
4564;DHT22;2294;51.818;8.484;2022-08-01T02:16:56;19.10;99.90
4564;DHT22;2294;51.818;8.484;2022-08-01T02:19:25;19.20;99.90
4564;DHT22;2294;51.818;8.484;2022-08-01T02:21:57;19.20;99.90
4564;DHT22;2294;51.818;8.484;2022-08-01T02:24:40;19.30;99.90
4564;DHT22;2294;51.818;8.484;2022-08-01T02:27:11;19.30;99.90
4564;DHT22;2294;51.818;8.484;2022-08-01T02:29:41;19.10;99.90
4564;DHT22;2294;51.818;8.484;2022-08-01T02:32:13;19.20;99.90
4564;DHT22;2294;51.818;8.484;2022-08-01T02:34:45;19.20;99.90
4564;DHT22;2294;51.818;8.484;2022-08-01T02:37:14;19.20;99.90
4564;DHT22;2294;51.818;8.484;2022-08-01T02:39:41;19.20;99.90
4564;DHT22;2294;51.818;8.484;2022-08-01T02:42:11;19.30;99.90
4564;DHT22;2294;51.818;8.484;2022-08-01T02:44:41;19.30;99.90
4564;DHT22;2294;51.818;8.484;2022-08-01T02:47:10;19.30;99.90
4564;DHT22;2294;51.818;8.484;2022-08-01T02:49:44;19.10;99.90
4564;DHT22;2294;51.818;8.484;2022-08-01T02:52:15;19.00;99.90
4564;DHT22;2294;51.818;8.484;2022-08-01T02:54:45;19.00;99.90
4564;DHT22;2294;51.818;8.484;2022-08-01T02:57:13;19.10;99.90
4564;DHT22;2294;51.818;8.484;2022-08-01T02:59:42;19.10;99.90
4564;DHT22;2294;51.818;8.484;2022-08-01T03:02:10;19.30;99.90
4564;DHT22;2294;51.818;8.484;2022-08-01T03:04:39;19.10;99.90
4564;DHT22;2294;51.818;8.484;2022-08-01T03:07:09;19.10;99.90
4564;DHT22;2294;51.818;8.484;2022-08-01T03:09:40;19.10;99.90
4564;DHT22;2294;51.818;8.484;2022-08-01T03:12:10;19.10;99.90
4564;DHT22;2294;51.818;8.484;2022-08-01T03:14:39;18.90;99.90
4564;DHT22;2294;51.818;8.484;2022-08-01T03:17:08;18.90;99.90
4564;DHT22;2294;51.818;8.484;2022-08-01T03:19:38;18.90;99.90
4564;DHT22;2294;51.818;8.484;2022-08-01T03:22:08;18.80;99.90
4564;DHT22;2294;51.818;8.484;2022-08-01T03:24:38;18.70;99.90
4564;DHT22;2294;51.818;8.484;2022-08-01T03:27:07;18.70;99.90
4564;DHT22;2294;51.818;8.484;2022-08-01T03:29:36;18.80;99.90
4564;DHT22;2294;51.818;8.484;2022-08-01T03:32:05;18.70;99.90
4564;DHT22;2294;51.818;8.484;2022-08-01T03:34:32;18.70;99.90
4564;DHT22;2294;51.818;8.484;2022-08-01T03:37:03;18.80;99.90
4564;DHT22;2294;51.818;8.484;2022-08-01T03:39:37;18.70;99.90
4564;DHT22;2294;51.818;8.484;2022-08-01T03:42:14;18.80;99.90
4564;DHT22;2294;51.818;8.484;2022-08-01T03:44:47;18.80;99.90
4564;DHT22;2294;51.818;8.484;2022-08-01T03:47:15;18.90;99.90
4564;DHT22;2294;51.818;8.484;2022-08-01T03:49:44;18.90;99.90
4564;DHT22;2294;51.818;8.484;2022-08-01T03:52:13;18.90;99.90
4564;DHT22;2294;51.818;8.484;2022-08-01T03:54:45;18.90;99.90
4564;DHT22;2294;51.818;8.484;2022-08-01T03:57:14;18.90;99.90
4564;DHT22;2294;51.818;8.484;2022-08-01T03:59:42;18.80;99.90
4564;DHT22;2294;51.818;8.484;2022-08-01T04:02:11;18.90;99.90
4564;DHT22;2294;51.818;8.484;2022-08-01T04:04:40;19.00;99.90
4564;DHT22;2294;51.818;8.484;2022-08-01T04:07:21;18.90;99.90
4564;DHT22;2294;51.818;8.484;2022-08-01T04:09:48;18.90;99.90
4564;DHT22;2294;51.818;8.484;2022-08-01T04:12:17;18.90;99.90
4564;DHT22;2294;51.818;8.484;2022-08-01T04:14:44;18.80;99.90
4564;DHT22;2294;51.818;8.484;2022-08-01T04:17:11;18.90;99.90
4564;DHT22;2294;51.818;8.484;2022-08-01T04:19:38;19.00;99.90
4564;DHT22;2294;51.818;8.484;2022-08-01T04:22:06;19.00;99.90
4564;DHT22;2294;51.818;8.484;2022-08-01T04:24:33;18.90;99.90
4564;DHT22;2294;51.818;8.484;2022-08-01T04:27:03;18.90;99.90
4564;DHT22;2294;51.818;8.484;2022-08-01T04:29:33;19.00;99.90
4564;DHT22;2294;51.818;8.484;2022-08-01T04:32:01;19.00;99.90
4564;DHT22;2294;51.818;8.484;2022-08-01T04:34:30;19.10;99.90
4564;DHT22;2294;51.818;8.484;2022-08-01T04:36:58;18.90;99.90
4564;DHT22;2294;51.818;8.484;2022-08-01T04:39:28;18.80;99.90
4564;DHT22;2294;51.818;8.484;2022-08-01T04:41:58;18.90;99.90
4564;DHT22;2294;51.818;8.484;2022-08-01T04:44:29;19.00;99.90
4564;DHT22;2294;51.818;8.484;2022-08-01T04:46:59;19.00;99.90
4564;DHT22;2294;51.818;8.484;2022-08-01T04:49:30;18.90;99.90
4564;DHT22;2294;51.818;8.484;2022-08-01T04:51:57;18.90;99.90
4564;DHT22;2294;51.818;8.484;2022-08-01T04:54:26;18.90;99.90
4564;DHT22;2294;51.818;8.484;2022-08-01T04:56:54;19.10;99.90
4564;DHT22;2294;51.818;8.484;2022-08-01T04:59:25;19.10;99.90
4564;DHT22;2294;51.818;8.484;2022-08-01T05:02:09;19.20;99.90
4564;DHT22;2294;51.818;8.484;2022-08-01T05:04:37;19.20;99.90
4564;DHT22;2294;51.818;8.484;2022-08-01T05:07:05;19.10;99.90
4564;DHT22;2294;51.818;8.484;2022-08-01T05:09:33;19.20;99.90
4564;DHT22;2294;51.818;8.484;2022-08-01T05:12:02;19.20;99.90
4564;DHT22;2294;51.818;8.484;2022-08-01T05:14:29;19.10;99.90
4564;DHT22;2294;51.818;8.484;2022-08-01T05:16:58;19.20;99.90
4564;DHT22;2294;51.818;8.484;2022-08-01T05:19:26;19.10;99.90
4564;DHT22;2294;51.818;8.484;2022-08-01T05:21:53;19.10;99.90
4564;DHT22;2294;51.818;8.484;2022-08-01T05:24:20;19.20;99.90
4564;DHT22;2294;51.818;8.484;2022-08-01T05:26:48;19.30;99.90
4564;DHT22;2294;51.818;8.484;2022-08-01T05:29:15;19.10;99.90
4564;DHT22;2294;51.818;8.484;2022-08-01T05:31:42;19.20;99.90
4564;DHT22;2294;51.818;8.484;2022-08-01T05:34:09;19.20;99.90
4564;DHT22;2294;51.818;8.484;2022-08-01T05:36:38;19.10;99.90
4564;DHT22;2294;51.818;8.484;2022-08-01T05:39:05;19.20;99.90
4564;DHT22;2294;51.818;8.484;2022-08-01T05:41:32;19.30;99.90
4564;DHT22;2294;51.818;8.484;2022-08-01T05:43:59;19.50;99.90
4564;DHT22;2294;51.818;8.484;2022-08-01T05:46:26;19.40;99.90
4564;DHT22;2294;51.818;8.484;2022-08-01T05:48:53;19.40;99.90
4564;DHT22;2294;51.818;8.484;2022-08-01T05:51:20;19.40;99.90
4564;DHT22;2294;51.818;8.484;2022-08-01T05:53:48;19.30;99.90
4564;DHT22;2294;51.818;8.484;2022-08-01T05:56:15;19.40;99.90
4564;DHT22;2294;51.818;8.484;2022-08-01T05:58:42;19.60;99.90
4564;DHT22;2294;51.818;8.484;2022-08-01T06:01:09;19.40;99.90
4564;DHT22;2294;51.818;8.484;2022-08-01T06:03:36;19.50;99.90
4564;DHT22;2294;51.818;8.484;2022-08-01T06:06:04;19.80;99.90
4564;DHT22;2294;51.818;8.484;2022-08-01T06:08:31;19.80;99.90
4564;DHT22;2294;51.818;8.484;2022-08-01T06:11:00;19.80;99.90
4564;DHT22;2294;51.818;8.484;2022-08-01T06:13:28;19.60;99.90
4564;DHT22;2294;51.818;8.484;2022-08-01T06:15:54;19.70;99.90
4564;DHT22;2294;51.818;8.484;2022-08-01T06:18:21;19.80;99.90
4564;DHT22;2294;51.818;8.484;2022-08-01T06:20:48;19.40;99.90
4564;DHT22;2294;51.818;8.484;2022-08-01T06:23:15;19.20;99.90
4564;DHT22;2294;51.818;8.484;2022-08-01T06:25:42;19.20;99.90
4564;DHT22;2294;51.818;8.484;2022-08-01T06:28:11;19.30;99.90
4564;DHT22;2294;51.818;8.484;2022-08-01T06:30:37;19.30;99.90
4564;DHT22;2294;51.818;8.484;2022-08-01T06:33:04;19.30;99.90
4564;DHT22;2294;51.818;8.484;2022-08-01T06:35:31;19.40;99.90
4564;DHT22;2294;51.818;8.484;2022-08-01T06:37:58;19.40;99.90
4564;DHT22;2294;51.818;8.484;2022-08-01T06:40:25;19.60;99.90
4564;DHT22;2294;51.818;8.484;2022-08-01T06:42:52;19.60;99.90
4564;DHT22;2294;51.818;8.484;2022-08-01T06:45:20;19.70;99.90
4564;DHT22;2294;51.818;8.484;2022-08-01T06:47:50;20.00;99.90
4564;DHT22;2294;51.818;8.484;2022-08-01T06:50:17;20.00;99.90
4564;DHT22;2294;51.818;8.484;2022-08-01T06:52:44;19.90;99.90
4564;DHT22;2294;51.818;8.484;2022-08-01T06:55:11;20.00;99.90
4564;DHT22;2294;51.818;8.484;2022-08-01T06:57:45;20.00;99.90
4564;DHT22;2294;51.818;8.484;2022-08-01T07:00:13;19.90;99.90
4564;DHT22;2294;51.818;8.484;2022-08-01T07:02:43;20.00;99.90
4564;DHT22;2294;51.818;8.484;2022-08-01T07:05:10;20.20;99.90
4564;DHT22;2294;51.818;8.484;2022-08-01T07:07:37;19.90;99.90
4564;DHT22;2294;51.818;8.484;2022-08-01T07:10:05;19.80;99.90
4564;DHT22;2294;51.818;8.484;2022-08-01T07:12:33;19.90;99.90
4564;DHT22;2294;51.818;8.484;2022-08-01T07:15:02;19.90;99.90
4564;DHT22;2294;51.818;8.484;2022-08-01T07:17:30;20.00;99.90
4564;DHT22;2294;51.818;8.484;2022-08-01T07:19:58;20.30;99.90
4564;DHT22;2294;51.818;8.484;2022-08-01T07:22:25;20.40;99.90
4564;DHT22;2294;51.818;8.484;2022-08-01T07:24:52;20.30;99.90
4564;DHT22;2294;51.818;8.484;2022-08-01T07:27:19;20.00;99.90
4564;DHT22;2294;51.818;8.484;2022-08-01T07:29:46;19.90;99.90
4564;DHT22;2294;51.818;8.484;2022-08-01T07:32:12;19.90;99.90
4564;DHT22;2294;51.818;8.484;2022-08-01T07:34:39;19.90;99.90
4564;DHT22;2294;51.818;8.484;2022-08-01T07:37:08;19.90;99.90
4564;DHT22;2294;51.818;8.484;2022-08-01T07:39:34;19.80;99.90
4564;DHT22;2294;51.818;8.484;2022-08-01T07:42:01;19.70;99.90
4564;DHT22;2294;51.818;8.484;2022-08-01T07:44:28;20.00;99.90
4564;DHT22;2294;51.818;8.484;2022-08-01T07:46:55;20.10;99.90
4564;DHT22;2294;51.818;8.484;2022-08-01T07:49:22;20.20;99.90
4564;DHT22;2294;51.818;8.484;2022-08-01T07:51:49;20.20;99.90
4564;DHT22;2294;51.818;8.484;2022-08-01T07:54:17;20.10;99.90
4564;DHT22;2294;51.818;8.484;2022-08-01T07:56:44;20.30;99.90
4564;DHT22;2294;51.818;8.484;2022-08-01T07:59:11;20.30;99.90
4564;DHT22;2294;51.818;8.484;2022-08-01T08:01:38;20.40;99.90
4564;DHT22;2294;51.818;8.484;2022-08-01T08:04:05;20.60;99.90
4564;DHT22;2294;51.818;8.484;2022-08-01T08:06:32;20.50;99.90
4564;DHT22;2294;51.818;8.484;2022-08-01T08:08:59;20.50;99.90
4564;DHT22;2294;51.818;8.484;2022-08-01T08:11:27;20.80;99.90
4564;DHT22;2294;51.818;8.484;2022-08-01T08:13:54;21.30;99.90
4564;DHT22;2294;51.818;8.484;2022-08-01T08:16:21;21.40;99.90
4564;DHT22;2294;51.818;8.484;2022-08-01T08:18:48;21.00;99.90
4564;DHT22;2294;51.818;8.484;2022-08-01T08:21:15;21.00;99.90
4564;DHT22;2294;51.818;8.484;2022-08-01T08:23:42;21.20;99.90
4564;DHT22;2294;51.818;8.484;2022-08-01T08:26:28;21.70;99.90
4564;DHT22;2294;51.818;8.484;2022-08-01T08:28:55;21.60;99.90
4564;DHT22;2294;51.818;8.484;2022-08-01T08:31:21;21.60;99.90
4564;DHT22;2294;51.818;8.484;2022-08-01T08:33:48;21.80;99.90
4564;DHT22;2294;51.818;8.484;2022-08-01T08:36:15;21.70;99.90
4564;DHT22;2294;51.818;8.484;2022-08-01T08:38:42;21.40;99.90
4564;DHT22;2294;51.818;8.484;2022-08-01T08:41:09;21.60;99.90
4564;DHT22;2294;51.818;8.484;2022-08-01T08:43:38;21.60;99.90
4564;DHT22;2294;51.818;8.484;2022-08-01T08:46:05;21.90;99.90
4564;DHT22;2294;51.818;8.484;2022-08-01T08:48:34;21.70;99.90
4564;DHT22;2294;51.818;8.484;2022-08-01T08:51:01;22.00;99.90
4564;DHT22;2294;51.818;8.484;2022-08-01T08:53:31;22.20;99.90
4564;DHT22;2294;51.818;8.484;2022-08-01T08:55:59;22.00;99.90
4564;DHT22;2294;51.818;8.484;2022-08-01T08:58:27;21.50;99.90
4564;DHT22;2294;51.818;8.484;2022-08-01T09:00:55;21.60;99.90
4564;DHT22;2294;51.818;8.484;2022-08-01T09:03:22;21.60;99.90
4564;DHT22;2294;51.818;8.484;2022-08-01T09:05:49;21.40;99.90
4564;DHT22;2294;51.818;8.484;2022-08-01T09:08:16;21.50;99.90
4564;DHT22;2294;51.818;8.484;2022-08-01T09:10:43;21.20;99.90
4564;DHT22;2294;51.818;8.484;2022-08-01T09:13:11;20.90;99.90
4564;DHT22;2294;51.818;8.484;2022-08-01T09:15:43;21.00;99.90
4564;DHT22;2294;51.818;8.484;2022-08-01T09:18:27;21.00;99.90
4564;DHT22;2294;51.818;8.484;2022-08-01T09:21:08;20.90;99.90
4564;DHT22;2294;51.818;8.484;2022-08-01T09:23:38;21.10;99.90
4564;DHT22;2294;51.818;8.484;2022-08-01T09:26:08;20.90;99.90
4564;DHT22;2294;51.818;8.484;2022-08-01T09:28:35;20.80;99.90
4564;DHT22;2294;51.818;8.484;2022-08-01T09:31:06;20.80;99.90
4564;DHT22;2294;51.818;8.484;2022-08-01T09:33:49;21.00;99.90
4564;DHT22;2294;51.818;8.484;2022-08-01T09:36:17;20.80;99.90
4564;DHT22;2294;51.818;8.484;2022-08-01T09:38:44;20.90;99.90
4564;DHT22;2294;51.818;8.484;2022-08-01T09:41:11;21.00;99.90
4564;DHT22;2294;51.818;8.484;2022-08-01T09:43:38;21.30;99.90
4564;DHT22;2294;51.818;8.484;2022-08-01T09:46:09;21.00;99.90
4564;DHT22;2294;51.818;8.484;2022-08-01T09:48:37;20.90;99.90
4564;DHT22;2294;51.818;8.484;2022-08-01T09:51:06;20.90;99.90
4564;DHT22;2294;51.818;8.484;2022-08-01T09:53:40;21.00;99.90
4564;DHT22;2294;51.818;8.484;2022-08-01T09:56:11;20.90;99.90
4564;DHT22;2294;51.818;8.484;2022-08-01T09:58:49;20.80;99.90
4564;DHT22;2294;51.818;8.484;2022-08-01T10:01:16;21.10;99.90
4564;DHT22;2294;51.818;8.484;2022-08-01T10:03:43;21.00;99.90
4564;DHT22;2294;51.818;8.484;2022-08-01T10:06:22;21.10;99.90
4564;DHT22;2294;51.818;8.484;2022-08-01T10:08:49;21.00;99.90
4564;DHT22;2294;51.818;8.484;2022-08-01T10:11:16;21.00;99.90
4564;DHT22;2294;51.818;8.484;2022-08-01T10:13:45;21.00;99.90
4564;DHT22;2294;51.818;8.484;2022-08-01T10:16:12;20.70;99.90
4564;DHT22;2294;51.818;8.484;2022-08-01T10:18:41;20.60;99.90
4564;DHT22;2294;51.818;8.484;2022-08-01T10:21:08;20.20;99.90
4564;DHT22;2294;51.818;8.484;2022-08-01T10:23:38;20.10;99.90
4564;DHT22;2294;51.818;8.484;2022-08-01T10:26:05;20.20;99.90
4564;DHT22;2294;51.818;8.484;2022-08-01T10:28:35;20.10;99.90
4564;DHT22;2294;51.818;8.484;2022-08-01T10:31:02;20.00;99.90
4564;DHT22;2294;51.818;8.484;2022-08-01T10:33:30;19.80;99.90
4564;DHT22;2294;51.818;8.484;2022-08-01T10:35:57;20.00;99.90
4564;DHT22;2294;51.818;8.484;2022-08-01T10:38:24;20.30;99.90
4564;DHT22;2294;51.818;8.484;2022-08-01T10:40:56;20.00;99.90
4564;DHT22;2294;51.818;8.484;2022-08-01T10:43:23;20.40;99.90
4564;DHT22;2294;51.818;8.484;2022-08-01T10:45:50;20.80;99.90
4564;DHT22;2294;51.818;8.484;2022-08-01T10:48:20;21.10;99.90
4564;DHT22;2294;51.818;8.484;2022-08-01T10:50:51;21.10;99.90
4564;DHT22;2294;51.818;8.484;2022-08-01T10:53:20;21.30;99.90
4564;DHT22;2294;51.818;8.484;2022-08-01T10:55:49;21.70;99.90
4564;DHT22;2294;51.818;8.484;2022-08-01T10:58:22;21.60;99.90
4564;DHT22;2294;51.818;8.484;2022-08-01T11:01:16;21.40;99.90
4564;DHT22;2294;51.818;8.484;2022-08-01T11:03:55;21.50;99.90
4564;DHT22;2294;51.818;8.484;2022-08-01T11:06:25;21.50;99.90
4564;DHT22;2294;51.818;8.484;2022-08-01T11:08:53;21.50;99.90
4564;DHT22;2294;51.818;8.484;2022-08-01T11:11:21;21.60;99.90
4564;DHT22;2294;51.818;8.484;2022-08-01T11:14:03;21.60;99.90
4564;DHT22;2294;51.818;8.484;2022-08-01T11:16:34;21.60;99.90
4564;DHT22;2294;51.818;8.484;2022-08-01T11:19:02;21.40;99.90
4564;DHT22;2294;51.818;8.484;2022-08-01T11:21:58;21.60;99.90
4564;DHT22;2294;51.818;8.484;2022-08-01T11:24:54;21.30;99.90
4564;DHT22;2294;51.818;8.484;2022-08-01T11:27:25;20.80;99.90
4564;DHT22;2294;51.818;8.484;2022-08-01T11:30:22;20.40;99.90
4564;DHT22;2294;51.818;8.484;2022-08-01T11:32:52;20.30;99.90
4564;DHT22;2294;51.818;8.484;2022-08-01T11:35:20;20.40;99.90
4564;DHT22;2294;51.818;8.484;2022-08-01T11:37:49;20.70;99.90
4564;DHT22;2294;51.818;8.484;2022-08-01T11:40:19;20.60;99.90
4564;DHT22;2294;51.818;8.484;2022-08-01T11:42:46;20.60;99.90
4564;DHT22;2294;51.818;8.484;2022-08-01T11:45:14;21.00;99.90
4564;DHT22;2294;51.818;8.484;2022-08-01T11:47:47;20.80;99.90
4564;DHT22;2294;51.818;8.484;2022-08-01T11:50:31;20.70;99.90
4564;DHT22;2294;51.818;8.484;2022-08-01T11:52:59;20.90;99.90
4564;DHT22;2294;51.818;8.484;2022-08-01T11:55:27;21.20;99.90
4564;DHT22;2294;51.818;8.484;2022-08-01T11:57:59;21.60;99.90
4564;DHT22;2294;51.818;8.484;2022-08-01T12:00:26;21.60;99.90
4564;DHT22;2294;51.818;8.484;2022-08-01T12:02:59;21.20;99.90
4564;DHT22;2294;51.818;8.484;2022-08-01T12:05:26;21.20;99.90
4564;DHT22;2294;51.818;8.484;2022-08-01T12:07:54;21.40;99.90
4564;DHT22;2294;51.818;8.484;2022-08-01T12:10:24;21.70;99.90
4564;DHT22;2294;51.818;8.484;2022-08-01T12:12:51;21.70;99.90
4564;DHT22;2294;51.818;8.484;2022-08-01T12:15:20;21.60;99.90
4564;DHT22;2294;51.818;8.484;2022-08-01T12:17:50;21.90;99.90
4564;DHT22;2294;51.818;8.484;2022-08-01T12:20:22;21.40;99.90
4564;DHT22;2294;51.818;8.484;2022-08-01T12:22:53;21.30;99.90
4564;DHT22;2294;51.818;8.484;2022-08-01T12:25:20;21.40;99.90
4564;DHT22;2294;51.818;8.484;2022-08-01T12:27:48;21.60;99.90
4564;DHT22;2294;51.818;8.484;2022-08-01T12:30:17;21.30;99.90
4564;DHT22;2294;51.818;8.484;2022-08-01T12:32:47;21.20;99.90
4564;DHT22;2294;51.818;8.484;2022-08-01T12:35:16;21.20;99.90
4564;DHT22;2294;51.818;8.484;2022-08-01T12:37:45;21.30;99.90
4564;DHT22;2294;51.818;8.484;2022-08-01T12:40:14;21.50;99.90
4564;DHT22;2294;51.818;8.484;2022-08-01T12:42:43;21.40;99.90
4564;DHT22;2294;51.818;8.484;2022-08-01T12:45:12;21.10;99.90
4564;DHT22;2294;51.818;8.484;2022-08-01T12:47:41;21.00;99.90
4564;DHT22;2294;51.818;8.484;2022-08-01T12:50:11;20.70;99.90
4564;DHT22;2294;51.818;8.484;2022-08-01T12:52:39;20.80;99.90
4564;DHT22;2294;51.818;8.484;2022-08-01T12:55:10;21.10;99.90
4564;DHT22;2294;51.818;8.484;2022-08-01T12:57:39;20.50;99.90
4564;DHT22;2294;51.818;8.484;2022-08-01T13:00:09;20.70;99.90
4564;DHT22;2294;51.818;8.484;2022-08-01T13:02:37;20.90;99.90
4564;DHT22;2294;51.818;8.484;2022-08-01T13:05:06;21.10;99.90
4564;DHT22;2294;51.818;8.484;2022-08-01T13:07:39;21.50;99.90
4564;DHT22;2294;51.818;8.484;2022-08-01T13:10:09;21.80;99.90
4564;DHT22;2294;51.818;8.484;2022-08-01T13:12:36;21.40;99.90
4564;DHT22;2294;51.818;8.484;2022-08-01T13:15:21;21.40;99.90
4564;DHT22;2294;51.818;8.484;2022-08-01T13:17:49;21.40;99.90
4564;DHT22;2294;51.818;8.484;2022-08-01T13:20:31;21.30;99.90
4564;DHT22;2294;51.818;8.484;2022-08-01T13:23:13;20.90;99.90
4564;DHT22;2294;51.818;8.484;2022-08-01T13:25:49;21.10;99.90
4564;DHT22;2294;51.818;8.484;2022-08-01T13:28:18;21.00;99.90
4564;DHT22;2294;51.818;8.484;2022-08-01T13:30:52;20.80;99.90
4564;DHT22;2294;51.818;8.484;2022-08-01T13:33:20;21.10;99.90
4564;DHT22;2294;51.818;8.484;2022-08-01T13:35:49;21.20;99.90
4564;DHT22;2294;51.818;8.484;2022-08-01T13:38:16;21.10;99.90
4564;DHT22;2294;51.818;8.484;2022-08-01T13:40:43;22.20;99.90
4564;DHT22;2294;51.818;8.484;2022-08-01T13:43:12;21.80;99.90
4564;DHT22;2294;51.818;8.484;2022-08-01T13:45:40;21.20;99.90
4564;DHT22;2294;51.818;8.484;2022-08-01T13:48:07;21.60;99.90
4564;DHT22;2294;51.818;8.484;2022-08-01T13:50:34;22.20;99.90
4564;DHT22;2294;51.818;8.484;2022-08-01T13:53:01;22.00;99.90
4564;DHT22;2294;51.818;8.484;2022-08-01T13:55:29;21.60;99.90
4564;DHT22;2294;51.818;8.484;2022-08-01T13:57:57;22.60;99.90
4564;DHT22;2294;51.818;8.484;2022-08-01T14:00:29;22.60;99.90
4564;DHT22;2294;51.818;8.484;2022-08-01T14:02:56;23.10;99.90
4564;DHT22;2294;51.818;8.484;2022-08-01T14:05:23;22.60;99.90
4564;DHT22;2294;51.818;8.484;2022-08-01T14:07:50;22.30;99.90
4564;DHT22;2294;51.818;8.484;2022-08-01T14:10:17;22.80;99.90
4564;DHT22;2294;51.818;8.484;2022-08-01T14:12:44;24.50;99.90
4564;DHT22;2294;51.818;8.484;2022-08-01T14:15:11;24.80;99.90
4564;DHT22;2294;51.818;8.484;2022-08-01T14:17:39;26.00;99.90
4564;DHT22;2294;51.818;8.484;2022-08-01T14:20:07;25.10;99.90
4564;DHT22;2294;51.818;8.484;2022-08-01T14:22:34;25.20;99.90
4564;DHT22;2294;51.818;8.484;2022-08-01T14:25:02;27.20;99.90
4564;DHT22;2294;51.818;8.484;2022-08-01T14:27:29;25.20;99.90
4564;DHT22;2294;51.818;8.484;2022-08-01T14:29:56;25.10;99.90
4564;DHT22;2294;51.818;8.484;2022-08-01T14:32:23;24.60;99.90
4564;DHT22;2294;51.818;8.484;2022-08-01T14:34:51;24.20;99.90
4564;DHT22;2294;51.818;8.484;2022-08-01T14:37:18;24.60;99.90
4564;DHT22;2294;51.818;8.484;2022-08-01T14:39:45;27.00;99.90
4564;DHT22;2294;51.818;8.484;2022-08-01T14:42:12;24.80;99.90
4564;DHT22;2294;51.818;8.484;2022-08-01T14:44:39;25.10;99.90
4564;DHT22;2294;51.818;8.484;2022-08-01T14:47:06;25.10;99.90
4564;DHT22;2294;51.818;8.484;2022-08-01T14:49:33;26.10;99.90
4564;DHT22;2294;51.818;8.484;2022-08-01T14:52:01;26.70;99.90
4564;DHT22;2294;51.818;8.484;2022-08-01T14:54:28;27.20;99.90
4564;DHT22;2294;51.818;8.484;2022-08-01T14:56:55;27.20;99.90
4564;DHT22;2294;51.818;8.484;2022-08-01T14:59:22;26.40;99.90
4564;DHT22;2294;51.818;8.484;2022-08-01T15:01:49;27.00;99.90
4564;DHT22;2294;51.818;8.484;2022-08-01T15:04:16;26.20;99.90
4564;DHT22;2294;51.818;8.484;2022-08-01T15:06:43;27.50;99.90
4564;DHT22;2294;51.818;8.484;2022-08-01T15:09:11;25.60;99.90
4564;DHT22;2294;51.818;8.484;2022-08-01T15:11:38;27.60;99.90
4564;DHT22;2294;51.818;8.484;2022-08-01T15:14:05;27.00;99.90
4564;DHT22;2294;51.818;8.484;2022-08-01T15:16:50;27.40;99.90
4564;DHT22;2294;51.818;8.484;2022-08-01T15:19:17;27.70;99.90
4564;DHT22;2294;51.818;8.484;2022-08-01T15:21:44;26.30;99.90
4564;DHT22;2294;51.818;8.484;2022-08-01T15:24:12;26.40;99.90
4564;DHT22;2294;51.818;8.484;2022-08-01T15:26:39;26.00;99.90
4564;DHT22;2294;51.818;8.484;2022-08-01T15:29:06;26.70;99.90
4564;DHT22;2294;51.818;8.484;2022-08-01T15:31:33;26.90;99.90
4564;DHT22;2294;51.818;8.484;2022-08-01T15:34:00;26.00;99.90
4564;DHT22;2294;51.818;8.484;2022-08-01T15:36:27;25.00;99.90
4564;DHT22;2294;51.818;8.484;2022-08-01T15:38:54;25.20;99.90
4564;DHT22;2294;51.818;8.484;2022-08-01T15:41:22;26.00;99.90
4564;DHT22;2294;51.818;8.484;2022-08-01T15:43:49;24.80;99.90
4564;DHT22;2294;51.818;8.484;2022-08-01T15:46:16;24.10;99.90
4564;DHT22;2294;51.818;8.484;2022-08-01T15:48:43;23.30;99.90
4564;DHT22;2294;51.818;8.484;2022-08-01T15:51:10;23.50;99.90
4564;DHT22;2294;51.818;8.484;2022-08-01T15:53:37;23.90;99.90
4564;DHT22;2294;51.818;8.484;2022-08-01T15:56:04;24.60;99.90
4564;DHT22;2294;51.818;8.484;2022-08-01T15:58:33;26.90;99.90
4564;DHT22;2294;51.818;8.484;2022-08-01T16:01:00;28.90;99.90
4564;DHT22;2294;51.818;8.484;2022-08-01T16:03:27;27.60;99.90
4564;DHT22;2294;51.818;8.484;2022-08-01T16:05:54;30.40;99.90
4564;DHT22;2294;51.818;8.484;2022-08-01T16:08:21;26.30;99.90
4564;DHT22;2294;51.818;8.484;2022-08-01T16:10:48;24.80;99.90
4564;DHT22;2294;51.818;8.484;2022-08-01T16:13:15;24.20;99.90
4564;DHT22;2294;51.818;8.484;2022-08-01T16:15:44;23.90;99.90